createdAt,value
2022-10-20T00:00:24.400Z,4.20
2022-10-20T00:00:57.235Z,4.03
2022-10-20T00:01:29.703Z,4.00
2022-10-20T00:02:02.185Z,4.38
2022-10-20T00:02:34.667Z,3.88
2022-10-20T00:03:07.319Z,3.90
2022-10-20T00:03:39.643Z,4.38
2022-10-20T00:04:11.979Z,4.10
2022-10-20T00:04:44.267Z,3.97
2022-10-20T00:05:16.548Z,4.70
2022-10-20T00:05:49.419Z,4.82
2022-10-20T00:06:23.365Z,4.15
2022-10-20T00:06:55.692Z,4.80
2022-10-20T00:07:28.006Z,4.50
2022-10-20T00:08:00.244Z,4.45
2022-10-20T00:08:32.559Z,5.15
2022-10-20T00:09:05.616Z,4.38
2022-10-20T00:09:37.975Z,4.60
2022-10-20T00:10:10.262Z,4.90
2022-10-20T00:10:42.821Z,4.40
2022-10-20T00:11:16.199Z,4.85
2022-10-20T00:11:48.521Z,5.00
2022-10-20T00:12:20.943Z,4.53
2022-10-20T00:12:53.203Z,4.43
2022-10-20T00:13:25.655Z,4.55
2022-10-20T00:13:58.828Z,4.90
2022-10-20T00:14:31.085Z,5.10
2022-10-20T00:15:03.858Z,4.85
2022-10-20T00:15:36.296Z,4.45
2022-10-20T00:16:08.910Z,4.93
2022-10-20T00:16:41.291Z,4.32
2022-10-20T00:17:13.580Z,5.07
2022-10-20T00:17:46.789Z,4.93
2022-10-20T00:18:19.102Z,5.05
2022-10-20T00:18:51.511Z,4.60
2022-10-20T00:19:23.767Z,5.03
2022-10-20T00:19:56.035Z,4.82
2022-10-20T00:20:28.773Z,6.00
2022-10-20T00:21:04.934Z,4.85
2022-10-20T00:21:37.241Z,5.78
2022-10-20T00:22:09.517Z,4.63
2022-10-20T00:22:41.788Z,5.05
2022-10-20T00:23:14.080Z,4.82
2022-10-20T00:23:46.689Z,5.72
2022-10-20T00:24:21.873Z,5.13
2022-10-20T00:24:54.130Z,5.22
2022-10-20T00:25:26.813Z,5.22
2022-10-20T00:26:03.034Z,4.93
2022-10-20T00:26:35.422Z,4.75
2022-10-20T00:27:07.679Z,4.70
2022-10-20T00:27:39.925Z,5.38
2022-10-20T00:28:12.206Z,5.03
2022-10-20T00:28:44.519Z,4.82
2022-10-20T00:29:50.405Z,4.75
2022-10-20T00:30:25.038Z,5.07
2022-10-20T00:30:58.088Z,4.85
2022-10-20T00:31:30.555Z,4.78
2022-10-20T00:32:02.867Z,5.13
2022-10-20T00:32:35.243Z,4.53
2022-10-20T00:33:07.688Z,4.88
2022-10-20T00:33:40.341Z,5.40
2022-10-20T00:34:12.743Z,5.38
2022-10-20T00:34:45.134Z,5.10
2022-10-20T00:35:17.436Z,5.03
2022-10-20T00:35:49.850Z,4.80
2022-10-20T00:36:23.110Z,6.13
2022-10-20T00:36:55.336Z,4.43
2022-10-20T00:37:27.639Z,5.05
2022-10-20T00:37:59.904Z,5.32
2022-10-20T00:38:32.280Z,5.22
2022-10-20T00:39:05.151Z,5.90
2022-10-20T00:39:37.489Z,5.65
2022-10-20T00:40:10.439Z,5.57
2022-10-20T00:40:42.736Z,5.80
2022-10-20T00:41:16.244Z,5.00
2022-10-20T00:41:48.705Z,5.78
2022-10-20T00:42:21.196Z,5.25
2022-10-20T00:42:53.506Z,5.43
2022-10-20T00:43:44.531Z,6.20
2022-10-20T00:44:35.422Z,5.40
2022-10-20T00:45:13.595Z,4.78
2022-10-20T00:45:50.946Z,4.88
2022-10-20T00:46:24.728Z,5.30
2022-10-20T00:46:57.726Z,5.32
2022-10-20T00:47:35.774Z,5.53
2022-10-20T00:48:15.806Z,5.80
2022-10-20T00:48:50.153Z,5.55
2022-10-20T00:49:23.904Z,5.07
2022-10-20T00:49:57.033Z,5.55
2022-10-20T00:50:34.988Z,5.20
2022-10-20T00:51:07.391Z,5.47
2022-10-20T00:51:39.991Z,5.03
2022-10-20T00:52:12.743Z,5.32
2022-10-20T00:52:45.905Z,4.80
2022-10-20T00:53:18.513Z,4.78
2022-10-20T00:53:53.317Z,4.70
2022-10-20T00:54:26.683Z,4.80
2022-10-20T00:54:59.765Z,4.70
2022-10-20T00:55:33.788Z,4.68
2022-10-20T00:56:06.231Z,4.80
2022-10-20T00:56:41.994Z,4.07
2022-10-20T00:57:14.627Z,4.88
2022-10-20T00:57:47.860Z,5.18
2022-10-20T00:58:20.401Z,4.72
2022-10-20T00:58:52.690Z,5.18
2022-10-20T00:59:27.306Z,4.32
2022-10-20T00:59:59.759Z,5.70
2022-10-20T01:00:32.322Z,4.40
2022-10-20T01:01:04.992Z,5.20
2022-10-20T01:01:39.285Z,4.72
2022-10-20T01:02:12.042Z,5.15
2022-10-20T01:02:44.898Z,5.65
2022-10-20T01:03:19.835Z,5.35
2022-10-20T01:03:52.715Z,5.20
2022-10-20T01:04:26.249Z,5.43
2022-10-20T01:04:59.207Z,6.32
2022-10-20T01:05:31.498Z,5.60
2022-10-20T01:06:04.020Z,5.85
2022-10-20T01:06:36.406Z,5.93
2022-10-20T01:07:08.715Z,5.75
2022-10-20T01:07:41.209Z,5.32
2022-10-20T01:08:13.794Z,4.88
2022-10-20T01:08:46.352Z,5.45
2022-10-20T01:09:18.766Z,4.55
2022-10-20T01:09:51.272Z,5.50
2022-10-20T01:10:26.140Z,5.22
2022-10-20T01:10:58.410Z,4.60
2022-10-20T01:11:45.348Z,5.05
2022-10-20T01:12:17.618Z,4.70
2022-10-20T01:13:08.263Z,4.60
2022-10-20T01:13:50.582Z,4.28
2022-10-20T01:14:30.441Z,4.78
2022-10-20T01:15:11.627Z,4.50
2022-10-20T01:16:06.911Z,4.47
2022-10-20T01:16:45.205Z,4.82
2022-10-20T01:17:24.524Z,4.53
2022-10-20T01:18:23.172Z,4.90
2022-10-20T01:19:15.869Z,4.10
2022-10-20T01:19:48.174Z,4.40
2022-10-20T01:20:20.451Z,4.60
2022-10-20T01:21:04.550Z,4.30
2022-10-20T01:22:06.102Z,4.50
2022-10-20T01:22:53.980Z,4.57
2022-10-20T01:23:48.247Z,4.00
2022-10-20T01:24:26.538Z,4.93
2022-10-20T01:25:19.086Z,4.35
2022-10-20T01:26:00.010Z,4.00
2022-10-20T01:26:41.265Z,4.63
2022-10-20T01:27:28.568Z,4.88
2022-10-20T01:28:07.147Z,4.25
2022-10-20T01:28:57.793Z,4.20
2022-10-20T01:29:45.797Z,4.65
2022-10-20T01:30:19.705Z,4.15
2022-10-20T01:30:56.756Z,3.80
2022-10-20T01:31:42.927Z,4.25
2022-10-20T01:32:22.598Z,4.88
2022-10-20T01:32:59.872Z,4.00
2022-10-20T01:33:43.973Z,4.88
2022-10-20T01:34:23.127Z,3.72
2022-10-20T01:34:58.089Z,4.30
2022-10-20T01:35:45.390Z,4.38
2022-10-20T01:36:37.513Z,4.05
2022-10-20T01:37:28.427Z,4.55
2022-10-20T01:38:21.258Z,4.18
2022-10-20T01:39:01.325Z,4.28
2022-10-20T01:40:09.068Z,4.10
2022-10-20T01:40:45.220Z,4.07
2022-10-20T01:41:35.827Z,4.30
2022-10-20T01:42:09.622Z,3.63
2022-10-20T01:42:43.830Z,4.03
2022-10-20T01:43:18.815Z,4.00
2022-10-20T01:43:52.626Z,4.57
2022-10-20T01:44:26.995Z,4.07
2022-10-20T01:45:01.962Z,4.28
2022-10-20T01:45:35.791Z,4.47
2022-10-20T01:46:10.146Z,4.22
2022-10-20T01:46:43.180Z,4.45
2022-10-20T01:47:16.272Z,4.60
2022-10-20T01:47:50.810Z,4.40
2022-10-20T01:48:24.689Z,4.10
2022-10-20T01:48:57.706Z,4.88
2022-10-20T01:49:29.949Z,4.70
2022-10-20T01:50:03.395Z,4.32
2022-10-20T01:50:36.107Z,4.03
2022-10-20T01:51:09.101Z,4.28
2022-10-20T01:52:14.532Z,4.20
2022-10-20T01:52:47.060Z,4.78
2022-10-20T01:53:20.023Z,4.40
2022-10-20T01:53:52.401Z,4.25
2022-10-20T01:54:26.130Z,4.13
2022-10-20T01:54:58.663Z,4.40
2022-10-20T01:55:31.268Z,3.97
2022-10-20T01:56:04.260Z,4.45
2022-10-20T01:56:39.485Z,4.57
2022-10-20T01:57:17.836Z,4.15
2022-10-20T01:58:08.550Z,4.53
2022-10-20T01:58:52.082Z,4.13
2022-10-20T01:59:44.653Z,3.78
2022-10-20T02:00:17.472Z,3.63
2022-10-20T02:00:51.300Z,4.35
2022-10-20T02:01:33.107Z,4.10
2022-10-20T02:02:11.579Z,4.00
2022-10-20T02:03:02.487Z,4.30
2022-10-20T02:03:49.916Z,4.07
2022-10-20T02:04:26.683Z,3.97
2022-10-20T02:05:11.844Z,4.40
2022-10-20T02:05:49.860Z,4.25
2022-10-20T02:06:33.349Z,4.82
2022-10-20T02:07:12.553Z,4.45
2022-10-20T02:07:44.985Z,4.78
2022-10-20T02:08:35.939Z,4.35
2022-10-20T02:09:11.578Z,4.30
2022-10-20T02:09:48.991Z,4.07
2022-10-20T02:10:23.752Z,4.45
2022-10-20T02:10:58.042Z,4.90
2022-10-20T02:11:46.791Z,4.65
2022-10-20T02:12:25.307Z,5.18
2022-10-20T02:13:00.821Z,4.10
2022-10-20T02:13:35.567Z,4.82
2022-10-20T02:14:09.795Z,4.57
2022-10-20T02:14:42.609Z,4.15
2022-10-20T02:15:17.496Z,4.60
2022-10-20T02:15:54.424Z,4.63
2022-10-20T02:16:32.196Z,4.57
2022-10-20T02:17:07.621Z,4.35
2022-10-20T02:17:41.353Z,4.78
2022-10-20T02:18:16.819Z,4.70
2022-10-20T02:18:49.693Z,4.80
2022-10-20T02:19:23.492Z,4.90
2022-10-20T02:19:56.471Z,4.85
2022-10-20T02:20:29.729Z,4.72
2022-10-20T02:21:04.171Z,4.13
2022-10-20T02:21:37.033Z,4.72
2022-10-20T02:22:10.421Z,4.93
2022-10-20T02:22:42.649Z,4.38
2022-10-20T02:23:14.947Z,4.97
2022-10-20T02:23:49.199Z,4.88
2022-10-20T02:24:23.756Z,4.50
2022-10-20T02:24:56.007Z,4.53
2022-10-20T02:25:29.845Z,4.10
2022-10-20T02:26:04.863Z,4.53
2022-10-20T02:26:38.860Z,4.63
2022-10-20T02:27:13.933Z,4.57
2022-10-20T02:27:48.035Z,4.28
2022-10-20T02:28:20.611Z,4.13
2022-10-20T02:28:55.944Z,4.55
2022-10-20T02:29:29.882Z,4.15
2022-10-20T02:30:05.336Z,4.80
2022-10-20T02:30:38.344Z,4.72
2022-10-20T02:31:11.720Z,4.45
2022-10-20T02:31:44.948Z,4.30
2022-10-20T02:32:17.724Z,4.80
2022-10-20T02:32:52.938Z,4.15
2022-10-20T02:33:25.802Z,4.43
2022-10-20T02:33:58.419Z,4.00
2022-10-20T02:34:30.665Z,4.22
2022-10-20T02:35:14.539Z,4.55
2022-10-20T02:35:51.726Z,4.32
2022-10-20T02:36:28.592Z,4.50
2022-10-20T02:37:01.149Z,4.55
2022-10-20T02:37:33.787Z,4.53
2022-10-20T02:38:06.241Z,4.38
2022-10-20T02:38:38.520Z,4.32
2022-10-20T02:39:11.259Z,4.70
2022-10-20T02:39:43.714Z,4.68
2022-10-20T02:40:16.101Z,4.55
2022-10-20T02:40:48.602Z,4.88
2022-10-20T02:41:20.954Z,4.35
2022-10-20T02:41:53.315Z,4.20
2022-10-20T02:42:25.531Z,4.47
2022-10-20T02:42:57.898Z,4.43
2022-10-20T02:43:30.196Z,5.18
2022-10-20T02:44:02.640Z,4.25
2022-10-20T02:44:35.170Z,4.10
2022-10-20T02:45:07.971Z,4.93
2022-10-20T02:45:40.278Z,4.28
2022-10-20T02:46:13.298Z,4.40
2022-10-20T02:46:45.668Z,4.32
2022-10-20T02:47:20.162Z,4.43
2022-10-20T02:47:52.462Z,3.83
2022-10-20T02:48:24.886Z,4.10
2022-10-20T02:48:57.248Z,4.05
2022-10-20T02:49:29.802Z,4.35
2022-10-20T02:50:02.637Z,4.25
2022-10-20T02:50:35.991Z,4.70
2022-10-20T02:51:08.329Z,4.63
2022-10-20T02:51:40.674Z,4.22
2022-10-20T02:52:13.179Z,4.20
2022-10-20T02:52:45.622Z,4.97
2022-10-20T02:53:17.990Z,5.03
2022-10-20T02:56:59.903Z,4.13
2022-10-20T02:57:32.260Z,4.40
2022-10-20T02:58:04.541Z,4.13
2022-10-20T02:58:37.360Z,4.53
2022-10-20T02:59:13.406Z,4.13
2022-10-20T02:59:45.747Z,4.72
2022-10-20T03:00:18.325Z,4.00
2022-10-20T03:00:51.241Z,4.32
2022-10-20T03:01:25.217Z,4.70
2022-10-20T03:01:57.721Z,4.50
2022-10-20T03:02:30.381Z,5.70
2022-10-20T03:03:02.736Z,5.15
2022-10-20T03:03:35.050Z,5.25
2022-10-20T03:04:07.347Z,4.53
2022-10-20T03:04:39.653Z,4.47
2022-10-20T03:05:11.891Z,5.18
2022-10-20T03:05:44.766Z,5.15
2022-10-20T03:06:17.136Z,5.25
2022-10-20T03:06:49.455Z,4.65
2022-10-20T03:07:21.837Z,5.57
2022-10-20T03:07:54.243Z,4.63
2022-10-20T03:08:26.639Z,5.30
2022-10-20T03:08:58.970Z,5.07
2022-10-20T03:09:31.292Z,4.60
2022-10-20T03:10:04.269Z,4.90
2022-10-20T03:10:37.742Z,4.88
2022-10-20T03:11:10.302Z,4.72
2022-10-20T03:11:42.599Z,5.20
2022-10-20T03:12:15.007Z,5.43
2022-10-20T03:12:47.313Z,5.82
2022-10-20T03:13:19.803Z,5.57
2022-10-20T03:13:52.151Z,5.97
2022-10-20T03:14:24.595Z,5.68
2022-10-20T03:14:57.250Z,5.13
2022-10-20T03:15:29.722Z,5.13
2022-10-20T03:16:02.079Z,4.93
2022-10-20T03:16:34.623Z,5.22
2022-10-20T03:17:06.987Z,5.50
2022-10-20T03:17:39.692Z,5.68
2022-10-20T03:18:12.695Z,5.20
2022-10-20T03:18:45.139Z,6.00
2022-10-20T03:19:17.707Z,5.88
2022-10-20T03:19:50.104Z,5.78
2022-10-20T03:20:22.436Z,4.97
2022-10-20T03:20:55.220Z,5.65
2022-10-20T03:21:27.485Z,6.00
2022-10-20T03:22:00.001Z,6.13
2022-10-20T03:22:32.537Z,5.85
2022-10-20T03:23:04.983Z,6.32
2022-10-20T03:23:37.741Z,6.20
2022-10-20T03:24:10.087Z,6.80
2022-10-20T03:24:42.388Z,6.05
2022-10-20T03:25:14.649Z,5.65
2022-10-20T03:25:47.174Z,5.93
2022-10-20T03:26:19.527Z,6.03
2022-10-20T03:26:51.804Z,5.88
2022-10-20T03:27:24.144Z,5.72
2022-10-20T03:27:56.845Z,6.20
2022-10-20T03:28:29.314Z,5.43
2022-10-20T03:29:01.777Z,6.50
2022-10-20T03:29:34.281Z,6.75
2022-10-20T03:30:07.002Z,6.55
2022-10-20T03:30:39.342Z,6.85
2022-10-20T03:31:11.823Z,6.93
2022-10-20T03:31:44.273Z,7.22
2022-10-20T03:32:16.912Z,6.32
2022-10-20T03:32:49.738Z,6.15
2022-10-20T03:33:22.217Z,6.55
2022-10-20T03:33:54.488Z,5.55
2022-10-20T03:34:26.862Z,5.50
2022-10-20T03:34:59.203Z,6.10
2022-10-20T03:35:31.596Z,5.57
2022-10-20T03:36:04.615Z,6.38
2022-10-20T03:36:37.008Z,6.60
2022-10-20T03:37:09.302Z,6.18
2022-10-20T03:37:41.544Z,5.95
2022-10-20T03:38:13.830Z,6.03
2022-10-20T03:38:46.199Z,6.03
2022-10-20T03:39:18.482Z,5.70
2022-10-20T03:39:50.788Z,6.22
2022-10-20T03:40:23.239Z,5.90
2022-10-20T03:40:55.571Z,5.80
2022-10-20T03:41:27.983Z,5.85
2022-10-20T03:42:00.429Z,5.60
2022-10-20T03:42:33.011Z,6.20
2022-10-20T03:43:05.513Z,6.05
2022-10-20T03:43:40.598Z,5.28
2022-10-20T03:44:13.200Z,6.25
2022-10-20T03:44:46.137Z,5.93
2022-10-20T03:45:18.797Z,5.63
2022-10-20T03:45:51.517Z,5.50
2022-10-20T03:46:24.032Z,5.80
2022-10-20T03:46:56.435Z,5.63
2022-10-20T03:47:28.665Z,6.60
2022-10-20T03:48:01.125Z,5.85
2022-10-20T03:48:33.445Z,5.72
2022-10-20T03:49:06.025Z,5.70
2022-10-20T03:49:38.449Z,6.57
2022-10-20T03:50:10.694Z,6.38
2022-10-20T03:50:43.413Z,5.70
2022-10-20T03:51:16.016Z,5.35
2022-10-20T03:51:48.324Z,6.05
2022-10-20T03:52:20.724Z,5.85
2022-10-20T03:52:53.379Z,5.65
2022-10-20T03:53:26.036Z,5.43
2022-10-20T03:53:58.390Z,6.07
2022-10-20T03:54:30.665Z,5.65
2022-10-20T03:55:02.933Z,6.22
2022-10-20T03:55:37.491Z,6.10
2022-10-20T03:56:10.678Z,6.07
2022-10-20T03:56:43.075Z,5.40
2022-10-20T03:57:15.492Z,5.60
2022-10-20T03:57:47.844Z,5.20
2022-10-20T03:58:20.231Z,5.60
2022-10-20T03:58:52.523Z,6.25
2022-10-20T03:59:26.795Z,5.40
2022-10-20T04:00:01.855Z,5.97
2022-10-20T04:00:43.789Z,5.22
2022-10-20T04:01:17.302Z,6.60
2022-10-20T04:01:49.754Z,5.80
2022-10-20T04:02:35.764Z,6.63
2022-10-20T04:03:08.352Z,5.20
2022-10-20T04:03:40.615Z,6.30
2022-10-20T04:04:13.006Z,5.80
2022-10-20T04:04:45.534Z,5.82
2022-10-20T04:05:19.267Z,5.95
2022-10-20T04:05:51.666Z,6.13
2022-10-20T04:06:24.383Z,6.30
2022-10-20T04:06:56.636Z,5.97
2022-10-20T04:07:28.879Z,6.20
2022-10-20T04:08:01.364Z,6.07
2022-10-20T04:08:33.989Z,5.97
2022-10-20T04:09:06.476Z,6.68
2022-10-20T04:09:38.851Z,5.82
2022-10-20T04:10:12.098Z,6.15
2022-10-20T04:10:44.323Z,6.10
2022-10-20T04:11:16.586Z,6.43
2022-10-20T04:11:48.851Z,6.28
2022-10-20T04:12:21.128Z,6.57
2022-10-20T04:12:53.474Z,6.30
2022-10-20T04:13:25.822Z,7.10
2022-10-20T04:13:58.147Z,5.93
2022-10-20T04:14:30.447Z,6.55
2022-10-20T04:15:02.891Z,6.68
2022-10-20T04:15:35.331Z,6.13
2022-10-20T04:16:07.950Z,6.20
2022-10-20T04:16:40.452Z,7.00
2022-10-20T04:17:12.700Z,6.53
2022-10-20T04:17:45.277Z,7.05
2022-10-20T04:18:17.510Z,6.55
2022-10-20T04:18:49.918Z,7.35
2022-10-20T04:19:22.224Z,6.75
2022-10-20T04:19:54.596Z,6.82
2022-10-20T04:20:26.869Z,7.07
2022-10-20T04:20:59.479Z,6.65
2022-10-20T04:21:31.779Z,6.80
2022-10-20T04:22:04.043Z,6.65
2022-10-20T04:22:36.725Z,6.70
2022-10-20T04:23:09.457Z,7.07
2022-10-20T04:23:41.758Z,5.78
2022-10-20T04:24:13.987Z,6.30
2022-10-20T04:24:46.239Z,7.65
2022-10-20T04:25:18.703Z,7.03
2022-10-20T04:25:51.105Z,6.60
2022-10-20T04:26:23.358Z,6.60
2022-10-20T04:26:55.617Z,6.90
2022-10-20T04:27:28.802Z,5.95
2022-10-20T04:28:01.253Z,6.75
2022-10-20T04:28:33.834Z,6.82
2022-10-20T04:29:06.138Z,6.22
2022-10-20T04:29:38.497Z,7.03
2022-10-20T04:30:11.272Z,6.80
2022-10-20T04:30:43.936Z,7.10
2022-10-20T04:31:16.412Z,7.72
2022-10-20T04:31:49.298Z,6.70
2022-10-20T04:32:21.710Z,6.65
2022-10-20T04:32:54.023Z,6.43
2022-10-20T04:33:26.509Z,6.65
2022-10-20T04:33:58.847Z,7.32
2022-10-20T04:34:31.121Z,7.43
2022-10-20T04:35:03.414Z,7.00
2022-10-20T04:35:35.833Z,7.70
2022-10-20T04:36:10.607Z,7.88
2022-10-20T04:36:42.980Z,7.10
2022-10-20T04:37:15.386Z,7.68
2022-10-20T04:37:48.066Z,7.03
2022-10-20T04:38:20.395Z,6.90
2022-10-20T04:38:52.790Z,6.95
2022-10-20T04:39:25.562Z,6.50
2022-10-20T04:39:58.205Z,6.93
2022-10-20T04:40:30.485Z,7.03
2022-10-20T04:41:07.038Z,5.82
2022-10-20T04:41:39.377Z,6.28
2022-10-20T04:42:11.762Z,6.35
2022-10-20T04:42:44.035Z,6.68
2022-10-20T04:43:16.284Z,6.65
2022-10-20T04:43:52.354Z,6.57
2022-10-20T04:44:24.672Z,6.50
2022-10-20T04:45:30.202Z,6.47
2022-10-20T04:46:07.006Z,7.03
2022-10-20T04:46:40.924Z,6.85
2022-10-20T04:47:13.284Z,6.95
2022-10-20T04:47:45.589Z,6.68
2022-10-20T04:48:17.835Z,6.93
2022-10-20T04:48:50.208Z,6.60
2022-10-20T04:49:22.814Z,7.93
2022-10-20T04:49:55.201Z,6.60
2022-10-20T04:50:27.685Z,7.47
2022-10-20T04:51:26.133Z,7.60
2022-10-20T04:52:01.001Z,6.50
2022-10-20T04:52:33.962Z,6.53
2022-10-20T04:53:06.370Z,7.05
2022-10-20T04:53:38.775Z,6.20
2022-10-20T04:54:11.112Z,6.80
2022-10-20T04:54:43.574Z,7.00
2022-10-20T04:55:15.821Z,7.07
2022-10-20T04:55:54.065Z,7.18
2022-10-20T04:56:26.322Z,7.75
2022-10-20T04:56:58.658Z,6.93
2022-10-20T04:57:30.968Z,8.15
2022-10-20T04:58:03.761Z,7.03
2022-10-20T04:58:36.201Z,7.45
2022-10-20T04:59:12.737Z,6.85
2022-10-20T04:59:46.448Z,7.18
2022-10-20T05:00:18.845Z,7.65
2022-10-20T05:00:51.348Z,7.10
2022-10-20T05:01:24.795Z,6.93
2022-10-20T05:01:57.121Z,7.20
2022-10-20T05:02:30.372Z,8.30
2022-10-20T05:03:03.182Z,7.35
2022-10-20T05:03:36.227Z,7.45
2022-10-20T05:04:09.424Z,7.40
2022-10-20T05:04:41.674Z,7.05
2022-10-20T05:05:14.013Z,8.23
2022-10-20T05:05:47.023Z,6.50
2022-10-20T05:06:21.123Z,7.63
2022-10-20T05:06:53.492Z,7.78
2022-10-20T05:07:25.788Z,7.78
2022-10-20T05:07:58.203Z,7.03
2022-10-20T05:08:30.782Z,7.38
2022-10-20T05:09:05.366Z,8.00
2022-10-20T05:09:37.828Z,7.88
2022-10-20T05:10:10.472Z,7.18
2022-10-20T05:10:43.699Z,6.78
2022-10-20T05:11:16.580Z,6.85
2022-10-20T05:11:48.935Z,7.88
2022-10-20T05:12:21.186Z,8.65
2022-10-20T05:12:53.409Z,7.55
2022-10-20T05:13:25.636Z,7.70
2022-10-20T05:13:57.907Z,6.85
2022-10-20T05:14:30.479Z,7.78
2022-10-20T05:15:02.795Z,6.65
2022-10-20T05:15:35.251Z,7.72
2022-10-20T05:16:07.895Z,6.72
2022-10-20T05:16:40.253Z,7.45
2022-10-20T05:17:12.606Z,6.70
2022-10-20T05:17:45.103Z,7.32
2022-10-20T05:18:17.386Z,7.25
2022-10-20T05:18:52.329Z,8.85
2022-10-20T05:19:24.805Z,6.70
2022-10-20T05:19:57.231Z,7.35
2022-10-20T05:20:33.515Z,6.68
2022-10-20T05:21:15.468Z,7.47
2022-10-20T05:21:48.058Z,7.25
2022-10-20T05:22:20.342Z,7.00
2022-10-20T05:22:52.664Z,6.45
2022-10-20T05:23:25.065Z,7.10
2022-10-20T05:23:58.658Z,8.48
2022-10-20T05:24:30.912Z,6.60
2022-10-20T05:25:24.390Z,5.10
2022-10-20T05:25:56.037Z,6.85
2022-10-20T05:26:29.765Z,6.60
2022-10-20T05:27:01.993Z,9.02
2022-10-20T05:27:34.317Z,6.68
2022-10-20T05:28:07.014Z,7.85
2022-10-20T05:28:39.882Z,7.30
2022-10-20T05:29:12.267Z,7.20
2022-10-20T05:29:44.536Z,7.72
2022-10-20T05:30:16.878Z,6.22
2022-10-20T05:30:49.559Z,7.80
2022-10-20T05:31:23.016Z,7.60
2022-10-20T05:31:55.300Z,7.32
2022-10-20T05:32:27.748Z,7.18
2022-10-20T05:33:00.084Z,7.78
2022-10-20T05:33:32.515Z,6.80
2022-10-20T05:34:04.813Z,7.07
2022-10-20T05:34:37.306Z,6.60
2022-10-20T05:35:09.821Z,7.32
2022-10-20T05:35:42.539Z,6.70
2022-10-20T05:36:19.451Z,7.65
2022-10-20T05:36:54.682Z,7.25
2022-10-20T05:37:27.312Z,7.55
2022-10-20T05:37:59.933Z,7.35
2022-10-20T05:38:32.288Z,8.40
2022-10-20T05:39:04.917Z,7.30
2022-10-20T05:39:37.588Z,7.55
2022-10-20T05:40:10.198Z,6.97
2022-10-20T05:40:42.665Z,7.88
2022-10-20T05:41:16.387Z,7.63
2022-10-20T05:41:48.648Z,6.88
2022-10-20T05:42:20.987Z,8.45
2022-10-20T05:42:54.008Z,8.23
2022-10-20T05:43:26.282Z,7.75
2022-10-20T05:44:00.119Z,8.30
2022-10-20T05:44:32.393Z,7.80
2022-10-20T05:45:05.410Z,7.95
2022-10-20T05:45:37.951Z,9.10
2022-10-20T05:46:10.384Z,8.85
2022-10-20T05:46:42.962Z,9.32
2022-10-20T05:47:15.273Z,7.88
2022-10-20T05:47:47.572Z,7.80
2022-10-20T05:48:19.824Z,8.02
2022-10-20T05:48:55.848Z,9.13
2022-10-20T05:49:28.294Z,9.02
2022-10-20T05:50:00.665Z,8.02
2022-10-20T05:50:33.227Z,8.27
2022-10-20T05:51:12.099Z,8.65
2022-10-20T05:51:47.384Z,8.98
2022-10-20T05:52:19.688Z,8.30
2022-10-20T05:52:52.304Z,7.95
2022-10-20T05:53:24.636Z,7.57
2022-10-20T05:53:58.291Z,9.57
2022-10-20T05:54:30.812Z,7.30
2022-10-20T05:55:03.611Z,9.23
2022-10-20T05:55:35.848Z,8.75
2022-10-20T05:56:08.933Z,8.45
2022-10-20T05:56:41.347Z,8.70
2022-10-20T05:57:13.644Z,8.98
2022-10-20T05:57:45.985Z,7.63
2022-10-20T05:58:19.618Z,9.23
2022-10-20T05:58:54.928Z,7.97
2022-10-20T05:59:27.325Z,8.75
2022-10-20T05:59:59.866Z,9.38
2022-10-20T06:00:41.526Z,8.25
2022-10-20T06:01:19.708Z,7.47
2022-10-20T06:01:53.075Z,9.90
2022-10-20T06:02:25.318Z,8.50
2022-10-20T06:02:58.260Z,7.50
2022-10-20T06:03:30.524Z,9.13
2022-10-20T06:04:02.763Z,7.95
2022-10-20T06:04:35.089Z,8.57
2022-10-20T06:05:07.516Z,9.85
2022-10-20T06:05:40.291Z,8.63
2022-10-20T06:06:12.642Z,9.07
2022-10-20T06:06:44.995Z,9.00
2022-10-20T06:07:17.243Z,7.65
2022-10-20T06:07:49.544Z,9.50
2022-10-20T06:08:21.809Z,9.77
2022-10-20T06:08:54.886Z,10.43
2022-10-20T06:09:27.241Z,11.80
2022-10-20T06:09:59.533Z,10.00
2022-10-20T06:10:31.846Z,9.77
2022-10-20T06:11:08.351Z,11.20
2022-10-20T06:11:40.730Z,10.57
2022-10-20T06:12:13.253Z,9.05
2022-10-20T06:12:45.502Z,10.40
2022-10-20T06:13:17.852Z,9.95
2022-10-20T06:13:52.826Z,9.35
2022-10-20T06:14:26.145Z,11.45
2022-10-20T06:14:58.577Z,9.13
2022-10-20T06:15:32.607Z,9.85
2022-10-20T06:16:06.131Z,11.45
2022-10-20T06:16:39.119Z,8.63
2022-10-20T06:17:11.442Z,9.60
2022-10-20T06:17:43.739Z,12.45
2022-10-20T06:18:16.101Z,13.65
2022-10-20T06:18:48.881Z,11.18
2022-10-20T06:19:21.592Z,12.18
2022-10-20T06:19:55.322Z,10.60
2022-10-20T06:20:27.682Z,11.95
2022-10-20T06:21:03.841Z,10.98
2022-10-20T06:21:37.146Z,9.98
2022-10-20T06:22:09.636Z,10.80
2022-10-20T06:22:42.128Z,10.98
2022-10-20T06:23:14.293Z,10.48
2022-10-20T06:23:46.582Z,9.55
2022-10-20T06:24:19.422Z,8.85
2022-10-20T06:24:51.644Z,10.45
2022-10-20T06:25:24.011Z,10.65
2022-10-20T06:26:01.591Z,8.32
2022-10-20T06:26:34.760Z,10.30
2022-10-20T06:27:07.873Z,9.65
2022-10-20T06:27:40.108Z,9.57
2022-10-20T06:28:12.423Z,8.77
2022-10-20T06:28:45.429Z,10.05
2022-10-20T06:29:18.534Z,9.55
2022-10-20T06:29:50.887Z,9.52
2022-10-20T06:30:23.116Z,8.88
2022-10-20T06:30:55.420Z,9.40
2022-10-20T06:31:29.129Z,9.80
2022-10-20T06:32:01.385Z,8.45
2022-10-20T06:32:34.353Z,9.30
2022-10-20T06:33:06.815Z,9.30
2022-10-20T06:33:39.568Z,9.48
2022-10-20T06:34:15.667Z,9.90
2022-10-20T06:34:47.896Z,9.07
2022-10-20T06:35:20.188Z,9.18
2022-10-20T06:35:52.444Z,8.77
2022-10-20T06:36:25.613Z,9.38
2022-10-20T06:36:58.199Z,7.82
2022-10-20T06:37:30.440Z,9.05
2022-10-20T06:38:02.782Z,9.45
2022-10-20T06:38:35.195Z,8.30
2022-10-20T06:39:08.567Z,8.05
2022-10-20T06:39:41.031Z,8.45
2022-10-20T06:40:13.391Z,8.93
2022-10-20T06:40:46.030Z,8.13
2022-10-20T06:41:18.534Z,7.50
2022-10-20T06:41:51.934Z,8.48
2022-10-20T06:42:24.537Z,8.57
2022-10-20T06:42:59.120Z,8.48
2022-10-20T06:43:31.478Z,7.53
2022-10-20T06:44:03.909Z,8.30
2022-10-20T06:44:36.258Z,6.93
2022-10-20T06:45:08.952Z,8.18
2022-10-20T06:45:41.258Z,7.00
2022-10-20T06:46:18.108Z,7.78
2022-10-20T06:46:52.670Z,8.43
2022-10-20T06:47:25.121Z,7.50
2022-10-20T06:47:57.447Z,8.48
2022-10-20T06:48:30.062Z,7.55
2022-10-20T06:49:04.331Z,7.78
2022-10-20T06:49:36.581Z,8.88
2022-10-20T06:50:09.125Z,7.60
2022-10-20T06:50:41.452Z,8.55
2022-10-20T06:51:15.149Z,8.50
2022-10-20T06:51:47.645Z,7.06
2022-10-20T06:52:20.371Z,9.60
2022-10-20T06:52:52.928Z,8.63
2022-10-20T06:53:25.603Z,8.13
2022-10-20T06:53:59.254Z,7.85
2022-10-20T06:54:31.620Z,7.60
2022-10-20T06:55:04.196Z,8.23
2022-10-20T06:55:36.699Z,7.88
2022-10-20T06:56:13.507Z,8.34
2022-10-20T06:56:45.848Z,8.25
2022-10-20T06:57:18.283Z,8.85
2022-10-20T06:57:50.586Z,8.02
2022-10-20T06:58:23.306Z,7.95
2022-10-20T06:58:56.244Z,8.23
2022-10-20T06:59:28.561Z,6.80
2022-10-20T07:00:00.975Z,8.80
2022-10-20T07:00:33.441Z,7.80
2022-10-20T07:01:10.010Z,8.04
2022-10-20T07:01:43.692Z,7.40
2022-10-20T07:02:16.394Z,7.68
2022-10-20T07:02:48.717Z,7.66
2022-10-20T07:03:20.946Z,7.63
2022-10-20T07:03:54.748Z,8.52
2022-10-20T07:04:28.176Z,9.06
2022-10-20T07:05:00.429Z,7.97
2022-10-20T07:05:33.940Z,7.52
2022-10-20T07:06:07.207Z,7.24
2022-10-20T07:06:40.654Z,8.30
2022-10-20T07:07:12.893Z,7.50
2022-10-20T07:07:45.184Z,6.72
2022-10-20T07:08:17.557Z,7.05
2022-10-20T07:08:51.243Z,7.05
2022-10-20T07:09:23.548Z,6.88
2022-10-20T07:09:56.019Z,7.05
2022-10-20T07:10:28.529Z,8.20
2022-10-20T07:11:04.991Z,6.85
2022-10-20T07:11:37.486Z,7.90
2022-10-20T07:12:09.797Z,7.02
2022-10-20T07:12:42.040Z,7.10
2022-10-20T07:13:14.288Z,7.90
2022-10-20T07:13:46.768Z,7.32
2022-10-20T07:14:19.911Z,8.08
2022-10-20T07:14:52.679Z,8.16
2022-10-20T07:15:24.961Z,7.10
2022-10-20T07:15:58.042Z,7.62
2022-10-20T07:16:31.470Z,8.04
2022-10-20T07:17:04.461Z,8.27
2022-10-20T07:17:36.945Z,6.90
2022-10-20T07:18:09.209Z,7.80
2022-10-20T07:18:41.530Z,7.50
2022-10-20T07:19:13.885Z,8.18
2022-10-20T07:19:46.340Z,7.90
2022-10-20T07:20:18.722Z,7.50
2022-10-20T07:20:51.109Z,7.90
2022-10-20T07:21:24.726Z,8.16
2022-10-20T07:21:56.967Z,7.48
2022-10-20T07:22:29.251Z,7.64
2022-10-20T07:23:01.647Z,8.02
2022-10-20T07:23:34.393Z,7.92
2022-10-20T07:24:07.567Z,7.44
2022-10-20T07:24:40.281Z,8.00
2022-10-20T07:25:12.597Z,7.86
2022-10-20T07:25:44.941Z,7.22
2022-10-20T07:26:18.842Z,8.22
2022-10-20T07:26:51.575Z,6.74
2022-10-20T07:27:23.953Z,7.46
2022-10-20T07:27:56.221Z,8.26
2022-10-20T07:28:28.937Z,7.12
2022-10-20T07:29:01.827Z,7.10
2022-10-20T07:30:11.480Z,7.72
2022-10-20T07:30:43.722Z,6.80
2022-10-20T07:31:20.846Z,7.82
2022-10-20T07:31:53.172Z,7.36
2022-10-20T07:32:25.521Z,8.12
2022-10-20T07:32:57.758Z,7.86
2022-10-20T07:33:30.149Z,7.70
2022-10-20T07:34:28.314Z,7.64
2022-10-20T07:34:55.217Z,7.48
2022-10-20T07:35:27.469Z,7.56
2022-10-20T07:36:00.030Z,7.16
2022-10-20T07:36:35.774Z,7.68
2022-10-20T07:37:08.660Z,8.18